createdAt,value
2018-03-29T00:02:49.604Z,83.10
2018-03-29T00:05:53.623Z,83.07
2018-03-29T00:08:57.655Z,83.07
2018-03-29T00:12:00.902Z,83.01
2018-03-29T00:15:04.232Z,83.15
2018-03-29T00:18:08.459Z,82.83
2018-03-29T00:21:11.722Z,83.00
2018-03-29T00:24:15.005Z,82.81
2018-03-29T00:27:18.281Z,82.94
2018-03-29T00:30:21.550Z,83.23
2018-03-29T00:33:24.804Z,83.33
2018-03-29T00:36:28.060Z,83.23
2018-03-29T00:39:31.363Z,82.95
2018-03-29T00:42:34.614Z,83.19
2018-03-29T00:45:38.661Z,83.08
2018-03-29T00:48:41.935Z,82.87
2018-03-29T00:51:45.985Z,83.18
2018-03-29T00:54:49.246Z,83.03
2018-03-29T00:57:53.252Z,82.85
2018-03-29T01:00:57.277Z,82.19
2018-03-29T01:04:01.400Z,82.50
2018-03-29T01:07:05.413Z,82.54
2018-03-29T01:10:08.780Z,82.45
2018-03-29T01:13:12.058Z,82.49
2018-03-29T01:16:15.325Z,82.50
2018-03-29T01:19:18.589Z,82.61
2018-03-29T01:22:22.606Z,82.11
2018-03-29T01:25:26.653Z,82.13
2018-03-29T01:28:29.931Z,82.46
2018-03-29T01:31:34.030Z,81.72
2018-03-29T01:34:37.310Z,81.79
2018-03-29T01:37:40.560Z,80.66
2018-03-29T01:40:43.814Z,81.49
2018-03-29T01:43:47.848Z,81.62
2018-03-29T01:46:51.897Z,80.93
2018-03-29T01:49:55.169Z,81.21
2018-03-29T01:52:58.436Z,81.42
2018-03-29T01:56:02.478Z,80.11
2018-03-29T01:59:05.758Z,81.08
2018-03-29T02:02:09.037Z,81.09
2018-03-29T02:05:12.309Z,80.80
2018-03-29T02:08:15.558Z,80.27
2018-03-29T02:11:19.581Z,78.92
2018-03-29T02:14:22.853Z,78.62
2018-03-29T02:17:26.109Z,79.12
2018-03-29T02:20:29.397Z,80.77
2018-03-29T02:23:32.663Z,80.49
2018-03-29T02:26:36.712Z,80.71
2018-03-29T02:29:40.002Z,80.42
2018-03-29T02:32:44.097Z,79.54
2018-03-29T02:35:48.142Z,80.15
2018-03-29T02:38:52.212Z,80.70
2018-03-29T02:41:56.229Z,81.52
2018-03-29T02:45:00.263Z,81.62
2018-03-29T02:48:03.539Z,82.42
2018-03-29T02:51:07.577Z,82.86
2018-03-29T02:54:10.861Z,82.83
2018-03-29T02:57:14.888Z,83.28
2018-03-29T03:00:18.167Z,83.30
2018-03-29T03:03:22.190Z,82.61
2018-03-29T03:06:26.266Z,82.44
2018-03-29T03:09:29.534Z,82.08
2018-03-29T03:12:32.799Z,82.81
2018-03-29T03:15:36.820Z,82.65
2018-03-29T03:18:40.108Z,83.00
2018-03-29T03:21:44.285Z,82.88
2018-03-29T03:24:47.601Z,83.26
2018-03-29T03:27:50.929Z,83.39
2018-03-29T03:30:54.949Z,83.48
2018-03-29T03:33:58.234Z,83.67
2018-03-29T03:37:02.365Z,83.71
2018-03-29T03:40:05.934Z,83.54
2018-03-29T03:43:09.280Z,83.68
2018-03-29T03:46:12.814Z,83.51
2018-03-29T03:49:16.159Z,82.56
2018-03-29T03:52:20.204Z,83.00
2018-03-29T03:55:23.490Z,82.32
2018-03-29T03:58:27.281Z,82.70
2018-03-29T04:01:31.302Z,82.50
2018-03-29T04:04:34.565Z,82.54
2018-03-29T04:07:38.897Z,82.44
2018-03-29T04:10:42.159Z,82.40
2018-03-29T04:13:45.549Z,82.59
2018-03-29T04:16:48.809Z,82.87
2018-03-29T04:19:52.088Z,82.34
2018-03-29T04:22:55.353Z,82.40
2018-03-29T04:25:58.632Z,82.42
2018-03-29T04:29:01.886Z,82.76
2018-03-29T04:32:05.913Z,82.76
2018-03-29T04:35:09.969Z,82.77
2018-03-29T04:38:13.220Z,83.18
2018-03-29T04:41:17.273Z,82.59
2018-03-29T04:44:20.525Z,82.82
2018-03-29T04:47:24.566Z,82.65
2018-03-29T04:50:28.644Z,82.52
2018-03-29T04:53:31.904Z,82.63
2018-03-29T04:56:35.217Z,83.00
2018-03-29T04:59:38.825Z,82.72
2018-03-29T05:02:42.084Z,83.01
2018-03-29T05:05:45.350Z,82.69
2018-03-29T05:08:49.370Z,82.74
2018-03-29T05:11:53.472Z,82.45
2018-03-29T05:14:56.752Z,82.68
2018-03-29T05:18:00.081Z,82.72
2018-03-29T05:21:03.381Z,82.92
2018-03-29T05:24:06.644Z,82.71
2018-03-29T05:27:15.401Z,83.06
2018-03-29T05:30:19.446Z,82.56
2018-03-29T05:33:22.702Z,82.79
2018-03-29T05:36:26.725Z,82.48
2018-03-29T05:39:30.908Z,81.94
2018-03-29T05:42:34.209Z,82.16
2018-03-29T05:45:37.489Z,82.33
2018-03-29T05:48:40.752Z,82.12
2018-03-29T05:51:46.089Z,81.67
2018-03-29T05:54:50.713Z,82.26
2018-03-29T05:57:54.737Z,82.07
2018-03-29T06:00:58.006Z,82.34
2018-03-29T06:04:02.313Z,82.21
2018-03-29T06:07:05.619Z,81.66
2018-03-29T06:10:09.742Z,81.81
2018-03-29T06:13:13.010Z,81.95
2018-03-29T06:16:17.082Z,82.62
2018-03-29T06:19:20.336Z,82.51
2018-03-29T06:22:23.962Z,79.98
2018-03-29T06:25:27.987Z,80.66
2018-03-29T06:28:32.111Z,80.58
2018-03-29T06:31:36.159Z,80.74
2018-03-29T06:34:39.517Z,80.28
2018-03-29T06:37:42.790Z,79.57
2018-03-29T06:40:46.049Z,77.68
2018-03-29T06:43:49.345Z,76.24
2018-03-29T06:46:52.605Z,75.81
2018-03-29T06:49:56.636Z,76.50
2018-03-29T06:52:59.916Z,76.51
2018-03-29T06:56:04.007Z,75.77
2018-03-29T06:59:07.305Z,74.85
2018-03-29T07:02:10.588Z,76.11
2018-03-29T07:05:13.869Z,76.21
2018-03-29T07:08:17.167Z,76.14
2018-03-29T07:11:20.434Z,75.43
2018-03-29T07:14:23.713Z,75.32
2018-03-29T07:17:27.745Z,74.19
2018-03-29T07:20:30.996Z,74.93
2018-03-29T07:23:34.332Z,75.15
2018-03-29T07:26:38.357Z,74.98
2018-03-29T07:29:41.616Z,74.56
2018-03-29T07:32:45.686Z,73.95
2018-03-29T07:35:49.011Z,72.28
2018-03-29T07:38:52.269Z,72.17
2018-03-29T07:41:55.543Z,72.57
2018-03-29T07:44:59.569Z,70.12
2018-03-29T07:48:03.123Z,70.17
2018-03-29T07:51:06.388Z,71.79
2018-03-29T07:54:09.649Z,72.11
2018-03-29T07:57:13.704Z,70.15
2018-03-29T08:00:16.976Z,68.45
2018-03-29T08:03:21.966Z,68.87
2018-03-29T08:06:25.240Z,68.02
2018-03-29T08:09:29.265Z,67.42
2018-03-29T08:12:32.701Z,68.23
2018-03-29T08:15:36.677Z,66.72
2018-03-29T08:18:39.937Z,66.34
2018-03-29T08:21:43.962Z,64.99
2018-03-29T08:24:48.045Z,67.26
2018-03-29T08:27:52.122Z,65.70
2018-03-29T08:30:55.455Z,63.78
2018-03-29T08:33:58.779Z,65.99
2018-03-29T08:37:02.972Z,64.70
2018-03-29T08:40:06.978Z,65.28
2018-03-29T08:43:10.249Z,62.65
2018-03-29T08:46:13.521Z,64.43
2018-03-29T08:49:16.821Z,62.46
2018-03-29T08:52:20.193Z,62.12
2018-03-29T08:55:25.521Z,63.23
2018-03-29T08:58:28.886Z,62.82
2018-03-29T09:01:32.400Z,61.33
2018-03-29T09:04:35.720Z,62.54
2018-03-29T09:07:39.225Z,61.51
2018-03-29T09:10:43.672Z,61.62
2018-03-29T09:13:47.800Z,62.05
2018-03-29T09:16:51.560Z,60.81
2018-03-29T09:19:54.917Z,60.58
2018-03-29T09:22:58.852Z,58.11
2018-03-29T09:26:02.158Z,54.21
2018-03-29T09:29:05.446Z,55.42
2018-03-29T09:32:08.729Z,56.58
2018-03-29T09:35:12.025Z,57.63
2018-03-29T09:38:15.293Z,58.03
2018-03-29T09:41:19.332Z,58.17
2018-03-29T09:44:22.669Z,59.59
2018-03-29T09:47:25.994Z,57.66
2018-03-29T09:50:29.253Z,57.18
2018-03-29T09:53:32.530Z,55.72
2018-03-29T09:56:35.797Z,57.12
2018-03-29T09:59:39.836Z,56.97
2018-03-29T10:02:48.559Z,56.70
2018-03-29T10:05:53.389Z,57.20
2018-03-29T10:08:56.686Z,58.35
2018-03-29T10:11:59.956Z,59.78
2018-03-29T10:15:04.041Z,61.09
2018-03-29T10:18:07.321Z,60.87
2018-03-29T10:21:10.625Z,62.42
2018-03-29T10:24:13.890Z,62.53
2018-03-29T10:27:17.182Z,66.46
2018-03-29T10:30:21.204Z,60.16
2018-03-29T10:33:24.482Z,59.32
2018-03-29T10:36:28.528Z,59.01
2018-03-29T10:39:31.839Z,56.71
2018-03-29T10:42:35.111Z,56.68
2018-03-29T10:45:38.372Z,58.94
2018-03-29T10:48:41.850Z,59.14
2018-03-29T10:51:46.050Z,59.27
2018-03-29T10:54:49.344Z,59.86
2018-03-29T10:57:52.626Z,57.88
2018-03-29T11:00:56.680Z,57.19
2018-03-29T11:03:59.970Z,57.07
2018-03-29T11:07:03.278Z,57.63
2018-03-29T11:10:06.544Z,57.26
2018-03-29T11:13:09.868Z,53.77
2018-03-29T11:16:13.918Z,58.05
2018-03-29T11:19:18.076Z,57.69
2018-03-29T11:22:21.348Z,57.18
2018-03-29T11:25:25.875Z,56.25
2018-03-29T11:28:29.906Z,57.93
2018-03-29T11:31:33.472Z,54.87
2018-03-29T11:34:38.283Z,55.55
2018-03-29T11:37:41.544Z,55.58
2018-03-29T11:40:45.192Z,58.39
2018-03-29T11:43:48.484Z,56.94
2018-03-29T11:46:52.002Z,52.84
2018-03-29T11:49:55.253Z,57.41
2018-03-29T11:52:58.884Z,56.92
2018-03-29T11:56:02.170Z,57.37
2018-03-29T11:59:05.459Z,56.49
2018-03-29T12:02:08.750Z,53.24
2018-03-29T12:05:12.025Z,54.35
2018-03-29T12:08:15.441Z,54.40
2018-03-29T12:11:18.740Z,53.41
2018-03-29T12:14:22.037Z,57.60
2018-03-29T12:17:25.304Z,53.49
2018-03-29T12:20:29.354Z,51.33
2018-03-29T12:23:32.640Z,51.03
2018-03-29T12:26:35.946Z,52.18
2018-03-29T12:29:39.267Z,52.26
2018-03-29T12:32:42.550Z,55.72
2018-03-29T12:35:45.832Z,53.42
2018-03-29T12:38:49.135Z,51.84
2018-03-29T12:41:52.412Z,51.49
2018-03-29T12:44:56.723Z,50.88
2018-03-29T12:48:00.777Z,53.13
2018-03-29T12:51:05.062Z,51.84
2018-03-29T12:54:08.309Z,51.50
2018-03-29T12:57:29.580Z,54.33
2018-03-29T13:00:33.634Z,49.87
2018-03-29T13:03:36.928Z,49.02
2018-03-29T13:06:40.213Z,50.02
2018-03-29T13:09:43.510Z,49.56
2018-03-29T13:12:46.808Z,50.03
2018-03-29T13:15:50.133Z,52.51
2018-03-29T13:18:53.444Z,49.01
2018-03-29T13:21:56.722Z,53.24
2018-03-29T13:25:00.005Z,51.59
2018-03-29T13:28:03.283Z,55.72
2018-03-29T13:31:07.603Z,53.26
2018-03-29T13:37:29.095Z,50.76
2018-03-29T13:40:32.394Z,48.89
2018-03-29T13:43:35.672Z,50.50
2018-03-29T13:46:38.968Z,48.09
2018-03-29T13:49:42.221Z,49.11
2018-03-29T13:52:45.488Z,51.88
2018-03-29T13:55:48.850Z,46.73
2018-03-29T13:58:52.680Z,48.01
2018-03-29T14:01:55.951Z,44.09
2018-03-29T14:04:59.980Z,45.33
2018-03-29T14:08:03.245Z,45.54
2018-03-29T14:11:06.506Z,46.22
2018-03-29T14:14:10.697Z,44.58
2018-03-29T14:17:14.086Z,45.66
2018-03-29T14:20:17.346Z,46.39
2018-03-29T14:23:20.625Z,48.30
2018-03-29T14:26:23.973Z,46.94
2018-03-29T14:29:28.200Z,49.14
2018-03-29T14:32:31.461Z,49.44
2018-03-29T14:35:34.762Z,49.55
2018-03-29T14:38:38.786Z,49.57
2018-03-29T14:41:42.816Z,53.43
2018-03-29T14:44:46.094Z,54.20
2018-03-29T14:47:50.144Z,54.62
2018-03-29T14:50:53.501Z,58.38
2018-03-29T14:53:57.633Z,57.98
2018-03-29T14:57:01.729Z,61.68
2018-03-29T15:00:05.763Z,63.16
2018-03-29T15:03:09.792Z,66.09
2018-03-29T15:06:13.078Z,66.61
2018-03-29T15:09:17.101Z,68.37
2018-03-29T15:12:21.421Z,65.86
2018-03-29T15:15:25.480Z,68.11
2018-03-29T15:18:28.732Z,67.75
2018-03-29T15:21:32.786Z,68.26
2018-03-29T15:24:36.049Z,69.90
2018-03-29T15:27:39.330Z,71.27
2018-03-29T15:30:43.378Z,73.20
2018-03-29T15:33:46.671Z,74.86
2018-03-29T15:36:49.956Z,73.19
2018-03-29T15:39:53.422Z,73.46
2018-03-29T15:42:56.684Z,72.65
2018-03-29T15:45:59.971Z,72.91
2018-03-29T15:49:03.230Z,73.38
2018-03-29T15:52:07.283Z,73.34
2018-03-29T15:55:10.558Z,73.26
2018-03-29T15:58:13.833Z,72.69
2018-03-29T16:01:17.098Z,73.60
2018-03-29T16:04:20.357Z,72.10
2018-03-29T16:07:23.653Z,72.32
2018-03-29T16:10:27.684Z,73.51
2018-03-29T16:13:30.993Z,71.70
2018-03-29T16:16:34.317Z,72.47
2018-03-29T16:19:37.580Z,73.20
2018-03-29T16:22:43.056Z,73.05
2018-03-29T16:25:46.772Z,73.21
2018-03-29T16:28:50.062Z,73.27
2018-03-29T16:31:54.147Z,73.50
2018-03-29T16:34:57.694Z,73.20
2018-03-29T16:38:01.039Z,74.01
2018-03-29T16:41:04.460Z,73.13
2018-03-29T16:44:07.731Z,73.69
2018-03-29T16:47:11.891Z,73.12
2018-03-29T16:50:15.221Z,73.97
2018-03-29T16:53:18.493Z,73.15
2018-03-29T16:56:21.801Z,73.45
2018-03-29T16:59:25.118Z,73.87
2018-03-29T17:02:28.364Z,74.01
2018-03-29T17:05:31.637Z,73.80
2018-03-29T17:08:35.665Z,74.02
2018-03-29T17:11:38.930Z,74.55
2018-03-29T17:14:42.180Z,75.02
2018-03-29T17:17:45.506Z,74.87
2018-03-29T17:20:48.899Z,74.97
2018-03-29T17:23:52.196Z,76.15
2018-03-29T17:26:55.696Z,76.42
2018-03-29T17:29:58.964Z,76.98
2018-03-29T17:33:02.235Z,76.76
2018-03-29T17:36:06.260Z,77.28
2018-03-29T17:39:09.570Z,77.14
2018-03-29T17:42:12.850Z,77.57
2018-03-29T17:45:16.870Z,77.72
2018-03-29T17:48:20.237Z,78.10
2018-03-29T17:51:23.581Z,77.73
2018-03-29T17:54:26.855Z,78.26
2018-03-29T17:57:30.887Z,77.99
2018-03-29T18:00:34.186Z,78.67
2018-03-29T18:03:37.446Z,78.84
2018-03-29T18:06:41.519Z,78.85
2018-03-29T18:09:44.800Z,78.00
2018-03-29T18:12:48.064Z,78.04
2018-03-29T18:15:52.169Z,78.07
2018-03-29T18:18:55.442Z,77.43
2018-03-29T18:21:59.481Z,77.57
2018-03-29T18:25:02.785Z,77.55
2018-03-29T18:28:06.869Z,77.56
2018-03-29T18:31:10.126Z,77.39
2018-03-29T18:34:13.380Z,77.68
2018-03-29T18:37:16.650Z,77.51
2018-03-29T18:40:19.971Z,77.73
2018-03-29T18:43:23.254Z,77.66
2018-03-29T18:46:26.572Z,77.15
2018-03-29T18:49:30.637Z,76.90
2018-03-29T18:52:33.899Z,76.88
2018-03-29T18:55:37.954Z,77.30
2018-03-29T18:58:41.281Z,77.26
2018-03-29T19:01:44.552Z,77.18
2018-03-29T19:04:47.846Z,77.29
2018-03-29T19:07:51.121Z,77.60
2018-03-29T19:10:55.156Z,77.22
2018-03-29T19:13:58.462Z,77.12
2018-03-29T19:17:01.736Z,77.38
2018-03-29T19:20:06.160Z,77.75
2018-03-29T19:23:10.182Z,77.22
2018-03-29T19:26:13.438Z,77.50
2018-03-29T19:29:16.705Z,77.56
2018-03-29T19:32:19.991Z,77.50
2018-03-29T19:35:23.281Z,77.98
2018-03-29T19:38:26.544Z,78.42
2018-03-29T19:41:30.659Z,78.27
2018-03-29T19:44:34.685Z,78.81
2018-03-29T19:47:38.724Z,78.96
2018-03-29T19:50:41.996Z,79.13
2018-03-29T19:53:46.013Z,79.59
2018-03-29T19:56:50.036Z,79.57
2018-03-29T19:59:53.365Z,79.79
2018-03-29T20:02:56.659Z,79.52
2018-03-29T20:05:59.932Z,79.51
2018-03-29T20:09:03.181Z,79.45
2018-03-29T20:12:06.465Z,79.57
2018-03-29T20:15:09.753Z,80.35
2018-03-29T20:18:13.013Z,79.79
2018-03-29T20:21:16.273Z,80.05
2018-03-29T20:24:19.637Z,80.18
2018-03-29T20:27:23.073Z,80.12
2018-03-29T20:30:26.452Z,80.71
2018-03-29T20:33:29.751Z,80.69
2018-03-29T20:36:33.064Z,80.85
2018-03-29T20:39:36.369Z,81.19
2018-03-29T20:42:39.689Z,80.96
2018-03-29T20:45:43.791Z,80.84
2018-03-29T20:48:47.122Z,81.02
2018-03-29T20:51:51.601Z,80.55
2018-03-29T20:54:55.045Z,80.57
2018-03-29T20:57:58.925Z,80.67
2018-03-29T21:01:02.249Z,81.04
2018-03-29T21:04:06.313Z,81.05
2018-03-29T21:07:09.603Z,80.73
2018-03-29T21:10:14.145Z,80.72
2018-03-29T21:13:18.636Z,80.38
2018-03-29T21:16:23.053Z,80.22
2018-03-29T21:19:26.800Z,80.12
2018-03-29T21:22:30.380Z,80.53
2018-03-29T21:25:33.669Z,81.20
2018-03-29T21:28:39.007Z,81.20
2018-03-29T21:31:42.538Z,81.67
2018-03-29T21:34:46.794Z,81.26
2018-03-29T21:37:51.255Z,81.75
2018-03-29T21:40:55.556Z,81.53
2018-03-29T21:44:00.712Z,81.03
2018-03-29T21:47:05.212Z,81.10
2018-03-29T21:50:52.208Z,81.27
2018-03-29T21:53:57.872Z,81.82
2018-03-29T21:57:01.912Z,82.04
2018-03-29T22:00:05.838Z,81.96
2018-03-29T22:03:09.138Z,82.13
2018-03-29T22:06:12.395Z,81.74
2018-03-29T22:09:15.667Z,81.86
2018-03-29T22:12:19.045Z,82.00
2018-03-29T22:15:22.379Z,81.95
2018-03-29T22:18:25.661Z,82.14
2018-03-29T22:21:28.931Z,82.05
2018-03-29T22:24:32.192Z,82.35
2018-03-29T22:27:36.263Z,82.70
2018-03-29T22:30:39.584Z,82.60
2018-03-29T22:33:43.686Z,82.42
2018-03-29T22:36:46.933Z,82.47
2018-03-29T22:39:51.563Z,82.25
2018-03-29T22:42:55.948Z,82.88
2018-03-29T22:45:59.298Z,82.48
2018-03-29T22:49:06.224Z,82.21
2018-03-29T22:52:10.091Z,81.98
2018-03-29T22:55:13.698Z,81.83
2018-03-29T22:58:18.300Z,81.58
2018-03-29T23:01:21.838Z,81.92
2018-03-29T23:04:25.176Z,82.32
2018-03-29T23:07:28.417Z,83.05
2018-03-29T23:10:32.552Z,82.70
2018-03-29T23:13:35.805Z,82.46
2018-03-29T23:16:39.154Z,82.26
2018-03-29T23:19:42.784Z,81.99
2018-03-29T23:22:46.076Z,82.04
2018-03-29T23:25:49.333Z,82.07
2018-03-29T23:28:53.360Z,81.72
2018-03-29T23:31:56.917Z,81.83
2018-03-29T23:35:00.196Z,81.48
2018-03-29T23:38:03.762Z,81.43
2018-03-29T23:41:07.026Z,81.56
2018-03-29T23:44:11.378Z,82.02
2018-03-29T23:47:15.428Z,82.10
2018-03-29T23:50:18.730Z,82.33
2018-03-29T23:53:21.998Z,82.85
2018-03-29T23:56:26.056Z,82.86
2018-03-29T23:59:30.340Z,82.42
